createdAt,value
2019-02-04T00:00:00.853Z,3.17
2019-02-04T00:01:09.660Z,2.80
2019-02-04T00:02:13.420Z,3.43
2019-02-04T00:03:19.635Z,3.23
2019-02-04T00:04:23.250Z,2.53
2019-02-04T00:05:26.741Z,3.43
2019-02-04T00:06:30.299Z,2.90
2019-02-04T00:07:33.874Z,3.23
2019-02-04T00:08:37.432Z,3.10
2019-02-04T00:09:40.962Z,3.50
2019-02-04T00:10:44.520Z,2.90
2019-02-04T00:11:47.994Z,3.33
2019-02-04T00:12:51.660Z,3.00
2019-02-04T00:13:55.394Z,3.03
2019-02-04T00:14:58.891Z,2.97
2019-02-04T00:16:02.685Z,3.20
2019-02-04T00:17:06.246Z,3.23
2019-02-04T00:18:09.893Z,2.83
2019-02-04T00:19:13.399Z,3.17
2019-02-04T00:20:17.043Z,3.13
2019-02-04T00:21:20.610Z,3.13
2019-02-04T00:22:24.100Z,3.20
2019-02-04T00:23:27.671Z,2.87
2019-02-04T00:24:31.165Z,2.57
2019-02-04T00:25:34.754Z,3.13
2019-02-04T00:26:38.326Z,3.17
2019-02-04T00:27:41.894Z,3.03
2019-02-04T00:28:45.727Z,2.97
2019-02-04T00:29:49.218Z,3.10
2019-02-04T00:30:52.809Z,2.73
2019-02-04T00:31:56.311Z,2.73
2019-02-04T00:32:59.809Z,3.13
2019-02-04T00:34:03.304Z,3.13
2019-02-04T00:35:07.035Z,2.30
2019-02-04T00:36:10.544Z,2.60
2019-02-04T00:37:14.164Z,2.80
2019-02-04T00:38:17.664Z,2.40
2019-02-04T00:39:21.152Z,3.10
2019-02-04T00:40:29.522Z,2.73
2019-02-04T00:41:33.040Z,2.80
2019-02-04T00:42:36.556Z,3.27
2019-02-04T00:43:40.482Z,2.90
2019-02-04T00:44:43.983Z,3.40
2019-02-04T00:45:47.556Z,2.30
2019-02-04T00:46:52.569Z,2.53
2019-02-04T00:47:56.376Z,2.07
2019-02-04T00:49:00.159Z,2.70
2019-02-04T00:50:05.202Z,3.00
2019-02-04T00:51:08.947Z,2.60
2019-02-04T00:52:12.566Z,2.33
2019-02-04T00:53:16.212Z,2.90
2019-02-04T00:54:19.875Z,2.90
2019-02-04T00:55:23.376Z,2.90
2019-02-04T00:56:27.046Z,2.40
2019-02-04T00:57:30.598Z,2.57
2019-02-04T00:58:34.436Z,2.27
2019-02-04T00:59:38.022Z,2.30
2019-02-04T01:00:41.659Z,2.60
2019-02-04T01:01:45.367Z,3.03
2019-02-04T01:02:49.041Z,2.20
2019-02-04T01:03:52.584Z,2.10
2019-02-04T01:04:56.238Z,2.37
2019-02-04T01:05:59.800Z,2.67
2019-02-04T01:07:04.251Z,2.53
2019-02-04T01:08:07.945Z,2.43
2019-02-04T01:09:11.764Z,2.60
2019-02-04T01:10:24.026Z,2.37
2019-02-04T01:11:27.583Z,2.27
2019-02-04T01:12:31.171Z,2.40
2019-02-04T01:13:34.822Z,2.17
2019-02-04T01:14:38.646Z,2.30
2019-02-04T01:15:42.204Z,2.53
2019-02-04T01:16:45.841Z,2.60
2019-02-04T01:17:49.563Z,2.53
2019-02-04T01:18:53.062Z,2.27
2019-02-04T01:19:56.552Z,2.17
2019-02-04T01:21:00.114Z,2.07
2019-02-04T01:22:03.793Z,2.10
2019-02-04T01:23:07.474Z,2.50
2019-02-04T01:24:11.035Z,2.63
2019-02-04T01:25:14.763Z,1.80
2019-02-04T01:26:18.323Z,2.33
2019-02-04T01:27:21.884Z,2.10
2019-02-04T01:28:25.476Z,2.80
2019-02-04T01:29:29.232Z,2.50
2019-02-04T01:30:32.943Z,2.20
2019-02-04T01:31:36.465Z,2.33
2019-02-04T01:32:40.008Z,2.43
2019-02-04T01:33:43.619Z,2.10
2019-02-04T01:34:48.904Z,2.17
2019-02-04T01:35:52.296Z,2.23
2019-02-04T01:36:56.153Z,2.47
2019-02-04T01:37:59.706Z,2.23
2019-02-04T01:39:03.536Z,2.20
2019-02-04T01:40:12.519Z,2.10
2019-02-04T01:41:15.992Z,2.47
2019-02-04T01:42:19.508Z,1.90
2019-02-04T01:43:23.212Z,2.43
2019-02-04T01:44:27.450Z,1.90
2019-02-04T01:45:31.481Z,2.40
2019-02-04T01:46:35.123Z,1.97
2019-02-04T01:47:38.699Z,2.50
2019-02-04T01:48:42.343Z,2.67
2019-02-04T01:49:45.887Z,2.90
2019-02-04T01:50:49.423Z,1.87
2019-02-04T01:51:52.971Z,2.00
2019-02-04T01:52:56.506Z,1.80
2019-02-04T01:54:00.163Z,2.30
2019-02-04T01:55:04.631Z,2.47
2019-02-04T01:56:08.286Z,2.20
2019-02-04T01:57:11.798Z,2.17
2019-02-04T01:58:15.276Z,2.00
2019-02-04T01:59:18.784Z,2.20
2019-02-04T02:00:31.013Z,2.43
2019-02-04T02:01:34.633Z,1.97
2019-02-04T02:02:38.550Z,2.13
2019-02-04T02:03:42.034Z,1.90
2019-02-04T02:04:45.620Z,2.67
2019-02-04T02:05:49.217Z,2.00
2019-02-04T02:06:52.708Z,2.40
2019-02-04T02:07:56.509Z,2.03
2019-02-04T02:09:00.050Z,1.97
2019-02-04T02:10:04.375Z,1.90
2019-02-04T02:11:08.102Z,2.10
2019-02-04T02:12:11.748Z,2.30
2019-02-04T02:13:15.329Z,2.10
2019-02-04T02:14:19.053Z,2.30
2019-02-04T02:15:22.790Z,2.00
2019-02-04T02:16:26.728Z,1.83
2019-02-04T02:17:32.777Z,2.20
2019-02-04T02:18:36.452Z,1.90
2019-02-04T02:19:40.012Z,2.00
2019-02-04T02:20:43.499Z,1.63
2019-02-04T02:21:47.031Z,1.73
2019-02-04T02:22:50.679Z,2.10
2019-02-04T02:23:54.250Z,2.13
2019-02-04T02:24:57.895Z,1.77
2019-02-04T02:26:01.518Z,1.77
2019-02-04T02:27:05.152Z,2.10
2019-02-04T02:28:08.773Z,2.00
2019-02-04T02:29:12.464Z,1.67
2019-02-04T02:30:18.710Z,1.40
2019-02-04T02:31:22.328Z,1.70
2019-02-04T02:32:26.157Z,2.00
2019-02-04T02:33:29.921Z,2.10
2019-02-04T02:34:33.405Z,1.80
2019-02-04T02:35:36.957Z,2.10
2019-02-04T02:36:40.682Z,1.30
2019-02-04T02:37:44.366Z,1.80
2019-02-04T02:38:47.868Z,2.00
2019-02-04T02:39:51.427Z,1.97
2019-02-04T02:40:54.930Z,1.80
2019-02-04T02:41:58.434Z,2.03
2019-02-04T02:43:02.196Z,2.00
2019-02-04T02:44:05.769Z,2.00
2019-02-04T02:45:09.527Z,2.10
2019-02-04T02:46:13.373Z,1.87
2019-02-04T02:47:17.157Z,1.90
2019-02-04T02:48:20.694Z,1.83
2019-02-04T02:49:24.281Z,2.00
2019-02-04T02:50:27.767Z,1.90
2019-02-04T02:51:31.286Z,1.87
2019-02-04T02:52:34.817Z,1.63
2019-02-04T02:53:38.372Z,1.83
2019-02-04T02:54:41.875Z,2.00
2019-02-04T02:55:45.362Z,2.00
2019-02-04T02:56:48.981Z,1.87
2019-02-04T02:57:52.585Z,1.97
2019-02-04T02:58:56.086Z,1.90
2019-02-04T02:59:59.846Z,1.90
2019-02-04T03:01:04.150Z,1.97
2019-02-04T03:02:07.822Z,2.03
2019-02-04T03:03:11.442Z,2.00
2019-02-04T03:04:15.040Z,1.90
2019-02-04T03:05:18.861Z,1.50
2019-02-04T03:06:22.569Z,1.30
2019-02-04T03:07:26.232Z,1.77
2019-02-04T03:08:29.830Z,1.67
2019-02-04T03:09:33.339Z,1.40
2019-02-04T03:10:37.017Z,1.63
2019-02-04T03:11:40.703Z,1.80
2019-02-04T03:12:44.286Z,1.83
2019-02-04T03:13:47.755Z,1.63
2019-02-04T03:14:51.440Z,2.07
2019-02-04T03:15:55.203Z,1.90
2019-02-04T03:16:58.788Z,1.40
2019-02-04T03:18:02.389Z,1.50
2019-02-04T03:19:05.944Z,1.60
2019-02-04T03:20:11.888Z,2.03
2019-02-04T03:21:15.447Z,1.73
2019-02-04T03:22:18.935Z,1.60
2019-02-04T03:23:22.516Z,1.90
2019-02-04T03:24:26.003Z,1.60
2019-02-04T03:25:29.501Z,1.60
2019-02-04T03:26:33.019Z,1.70
2019-02-04T03:27:36.641Z,1.80
2019-02-04T03:28:40.214Z,1.77
2019-02-04T03:29:43.954Z,1.70
2019-02-04T03:30:47.439Z,1.90
2019-02-04T03:31:50.955Z,1.90
2019-02-04T03:32:54.458Z,1.70
2019-02-04T03:33:57.975Z,1.60
2019-02-04T03:35:01.579Z,1.60
2019-02-04T03:36:05.180Z,1.70
2019-02-04T03:37:08.916Z,1.80
2019-02-04T03:38:12.392Z,1.77
2019-02-04T03:39:16.104Z,1.60
2019-02-04T03:40:22.253Z,1.80
2019-02-04T03:41:25.720Z,1.40
2019-02-04T03:42:29.399Z,1.43
2019-02-04T03:43:32.918Z,1.77
2019-02-04T03:44:36.797Z,1.50
2019-02-04T03:45:40.366Z,1.80
2019-02-04T03:46:43.925Z,1.60
2019-02-04T03:47:47.716Z,1.70
2019-02-04T03:48:51.212Z,1.47
2019-02-04T03:49:54.703Z,1.30
2019-02-04T03:50:58.260Z,1.60
2019-02-04T03:52:01.766Z,1.60
2019-02-04T03:53:05.394Z,1.77
2019-02-04T03:54:08.983Z,1.50
2019-02-04T03:55:14.812Z,1.77
2019-02-04T03:56:18.447Z,1.40
2019-02-04T03:57:21.959Z,1.57
2019-02-04T03:58:25.472Z,1.70
2019-02-04T03:59:29.215Z,1.23
2019-02-04T04:00:35.124Z,1.73
2019-02-04T04:01:38.683Z,1.40
2019-02-04T04:02:42.244Z,1.40
2019-02-04T04:03:45.755Z,1.27
2019-02-04T04:04:49.250Z,1.70
2019-02-04T04:05:52.823Z,1.80
2019-02-04T04:06:56.321Z,1.50
2019-02-04T04:07:59.998Z,1.60
2019-02-04T04:09:05.004Z,1.67
2019-02-04T04:10:10.361Z,1.50
2019-02-04T04:11:13.994Z,1.40
2019-02-04T04:12:17.625Z,1.60
2019-02-04T04:13:21.283Z,1.60
2019-02-04T04:14:24.792Z,1.77
2019-02-04T04:15:28.617Z,1.30
2019-02-04T04:16:32.259Z,1.80
2019-02-04T04:17:35.745Z,1.60
2019-02-04T04:18:39.326Z,1.40
2019-02-04T04:19:42.893Z,1.60
2019-02-04T04:20:46.382Z,1.50
2019-02-04T04:21:50.003Z,1.63
2019-02-04T04:22:53.664Z,1.30
2019-02-04T04:23:57.218Z,1.63
2019-02-04T04:25:00.949Z,1.40
2019-02-04T04:26:04.502Z,1.53
2019-02-04T04:27:07.992Z,1.40
2019-02-04T04:28:11.752Z,1.60
2019-02-04T04:29:15.514Z,1.60
2019-02-04T04:30:25.017Z,1.30
2019-02-04T04:31:28.787Z,1.33
2019-02-04T04:32:32.314Z,1.57
2019-02-04T04:33:35.821Z,1.60
2019-02-04T04:34:39.312Z,1.53
2019-02-04T04:35:42.872Z,1.43
2019-02-04T04:36:46.376Z,1.97
2019-02-04T04:37:49.961Z,1.03
2019-02-04T04:38:53.903Z,1.43
2019-02-04T04:39:57.403Z,1.57
2019-02-04T04:41:03.875Z,1.50
2019-02-04T04:42:07.525Z,1.60
2019-02-04T04:43:11.013Z,1.63
2019-02-04T04:44:14.571Z,1.37
2019-02-04T04:45:26.104Z,1.47
2019-02-04T04:46:29.602Z,1.77
2019-02-04T04:47:33.543Z,1.20
2019-02-04T04:48:37.190Z,1.27
2019-02-04T04:49:40.749Z,1.20
2019-02-04T04:50:44.250Z,1.17
2019-02-04T04:51:47.730Z,1.60
2019-02-04T04:52:51.581Z,1.23
2019-02-04T04:53:55.156Z,1.63
2019-02-04T04:54:58.637Z,1.30
2019-02-04T04:56:02.186Z,1.33
2019-02-04T04:57:05.858Z,1.33
2019-02-04T04:58:09.429Z,1.40
2019-02-04T04:59:13.083Z,1.30
2019-02-04T05:00:19.460Z,1.33
2019-02-04T05:01:23.071Z,1.30
2019-02-04T05:02:26.901Z,1.30
2019-02-04T05:03:30.438Z,1.50
2019-02-04T05:04:34.012Z,1.30
2019-02-04T05:05:37.571Z,1.17
2019-02-04T05:06:41.047Z,1.30
2019-02-04T05:07:44.655Z,1.40
2019-02-04T05:08:48.160Z,1.80
2019-02-04T05:09:51.655Z,1.30
2019-02-04T05:10:55.322Z,1.30
2019-02-04T05:11:58.815Z,1.10
2019-02-04T05:13:02.394Z,1.30
2019-02-04T05:14:06.641Z,1.57
2019-02-04T05:15:13.275Z,1.40
2019-02-04T05:16:16.791Z,1.20
2019-02-04T05:17:20.586Z,1.30
2019-02-04T05:18:24.142Z,1.23
2019-02-04T05:19:27.688Z,1.40
2019-02-04T05:20:31.259Z,1.37
2019-02-04T05:21:34.745Z,1.40
2019-02-04T05:22:38.310Z,1.53
2019-02-04T05:23:41.897Z,1.53
2019-02-04T05:24:45.549Z,1.40
2019-02-04T05:25:49.056Z,1.30
2019-02-04T05:26:52.553Z,1.10
2019-02-04T05:27:56.101Z,1.60
2019-02-04T05:28:59.642Z,1.00
2019-02-04T05:30:04.271Z,1.40
2019-02-04T05:31:07.770Z,1.30
2019-02-04T05:32:11.711Z,1.10
2019-02-04T05:33:15.340Z,1.43
2019-02-04T05:34:18.864Z,1.50
2019-02-04T05:35:22.612Z,1.27
2019-02-04T05:36:26.295Z,1.23
2019-02-04T05:37:29.836Z,1.23
2019-02-04T05:38:33.413Z,1.37
2019-02-04T05:39:36.929Z,1.10
2019-02-04T05:40:40.486Z,1.20
2019-02-04T05:41:44.015Z,1.23
2019-02-04T05:42:47.688Z,1.30
2019-02-04T05:43:51.185Z,1.20
2019-02-04T05:44:54.701Z,1.30
2019-02-04T05:45:58.523Z,1.20
2019-02-04T05:47:02.007Z,1.30
2019-02-04T05:48:05.573Z,1.30
2019-02-04T05:49:09.073Z,1.23
2019-02-04T05:50:17.198Z,1.00
2019-02-04T05:51:20.181Z,1.30
2019-02-04T05:52:23.729Z,1.67
2019-02-04T05:53:27.378Z,1.40
2019-02-04T05:54:30.959Z,1.20
2019-02-04T05:55:34.575Z,2.03
2019-02-04T05:56:38.161Z,1.40
2019-02-04T05:57:41.767Z,1.53
2019-02-04T05:58:45.341Z,1.20
2019-02-04T05:59:48.890Z,1.30
2019-02-04T06:00:52.883Z,1.20
2019-02-04T06:01:56.520Z,1.23
2019-02-04T06:03:00.829Z,1.23
2019-02-04T06:04:04.563Z,1.10
2019-02-04T06:05:10.732Z,1.60
2019-02-04T06:06:14.288Z,1.20
2019-02-04T06:07:17.858Z,1.17
2019-02-04T06:08:21.421Z,1.20
2019-02-04T06:09:24.937Z,1.10
2019-02-04T06:10:28.613Z,1.60
2019-02-04T06:11:32.087Z,1.20
2019-02-04T06:12:35.584Z,1.13
2019-02-04T06:13:39.154Z,1.00
2019-02-04T06:14:42.672Z,1.20
2019-02-04T06:15:46.609Z,1.23
2019-02-04T06:16:50.125Z,1.10
2019-02-04T06:17:53.748Z,1.10
2019-02-04T06:19:00.925Z,1.00
2019-02-04T06:20:03.217Z,1.07
2019-02-04T06:21:06.856Z,1.03
2019-02-04T06:22:10.423Z,1.70
2019-02-04T06:23:14.000Z,1.27
2019-02-04T06:24:17.609Z,1.27
2019-02-04T06:25:21.191Z,1.00
2019-02-04T06:26:24.699Z,0.83
2019-02-04T06:27:28.349Z,1.10
2019-02-04T06:28:31.951Z,1.10
2019-02-04T06:29:35.594Z,0.93
2019-02-04T06:30:39.469Z,1.20
2019-02-04T06:31:43.054Z,1.23
2019-02-04T06:32:46.832Z,1.10
2019-02-04T06:33:50.349Z,0.90
2019-02-04T06:34:53.915Z,1.20
2019-02-04T06:35:57.449Z,1.07
2019-02-04T06:37:00.967Z,1.30
2019-02-04T06:38:04.609Z,1.10
2019-02-04T06:39:10.313Z,1.43
2019-02-04T06:40:15.580Z,0.90
2019-02-04T06:41:19.222Z,1.20
2019-02-04T06:42:22.742Z,1.13
2019-02-04T06:43:26.353Z,1.20
2019-02-04T06:44:29.891Z,1.30
2019-02-04T06:45:33.627Z,1.13
2019-02-04T06:46:37.188Z,1.27
2019-02-04T06:47:40.840Z,1.13
2019-02-04T06:48:44.334Z,0.90
2019-02-04T06:49:47.846Z,1.20
2019-02-04T06:50:51.347Z,1.00
2019-02-04T06:51:54.841Z,1.17
2019-02-04T06:52:58.443Z,0.93
2019-02-04T06:54:01.919Z,1.00
2019-02-04T06:55:24.709Z,0.97
2019-02-04T06:56:28.362Z,0.90
2019-02-04T06:57:31.866Z,1.20
2019-02-04T06:58:35.460Z,1.00
2019-02-04T06:59:38.969Z,1.10
2019-02-04T07:00:42.518Z,1.27
2019-02-04T07:01:46.073Z,1.07
2019-02-04T07:02:50.064Z,1.10
2019-02-04T07:03:53.900Z,1.20
2019-02-04T07:04:57.456Z,0.90
2019-02-04T07:06:01.203Z,1.37
2019-02-04T07:07:04.868Z,1.20
2019-02-04T07:08:08.482Z,1.20
2019-02-04T07:09:12.145Z,1.17
2019-02-04T07:10:28.038Z,1.10
2019-02-04T07:11:31.528Z,1.07
2019-02-04T07:12:35.034Z,1.20
2019-02-04T07:13:42.119Z,1.10
2019-02-04T07:14:43.781Z,1.20
2019-02-04T07:15:47.414Z,1.03
2019-02-04T07:16:50.975Z,1.20
2019-02-04T07:17:54.644Z,1.00
2019-02-04T07:18:58.140Z,1.00
2019-02-04T07:20:01.829Z,1.10
2019-02-04T07:21:05.667Z,1.30
2019-02-04T07:22:09.225Z,1.10
2019-02-04T07:23:12.897Z,1.10
2019-02-04T07:24:16.451Z,1.17
2019-02-04T07:25:20.919Z,1.30
2019-02-04T07:26:24.554Z,1.20
2019-02-04T07:27:28.048Z,1.10
2019-02-04T07:28:31.677Z,1.30
2019-02-04T07:29:35.435Z,1.03
2019-02-04T07:30:39.042Z,1.20
2019-02-04T07:31:42.665Z,1.30
2019-02-04T07:32:46.232Z,1.30
2019-02-04T07:33:49.926Z,1.57
2019-02-04T07:34:53.791Z,2.90
2019-02-04T07:35:57.311Z,2.60
2019-02-04T07:37:00.864Z,3.03
2019-02-04T07:38:04.606Z,3.63
2019-02-04T07:39:08.458Z,4.00
2019-02-04T07:40:17.612Z,4.37
2019-02-04T07:41:21.189Z,5.43
2019-02-04T07:42:24.768Z,4.67
2019-02-04T07:43:28.402Z,6.00
2019-02-04T07:44:31.986Z,6.40
2019-02-04T07:45:36.949Z,7.10
2019-02-04T07:46:40.731Z,5.80
2019-02-04T07:47:44.408Z,6.50
2019-02-04T07:48:47.972Z,6.87
2019-02-04T07:49:51.754Z,6.77
2019-02-04T07:50:55.393Z,6.47
2019-02-04T07:51:58.991Z,6.67
2019-02-04T07:53:02.624Z,7.10
2019-02-04T07:54:06.377Z,7.07
2019-02-04T07:55:11.023Z,6.30
2019-02-04T07:56:14.586Z,7.10
2019-02-04T07:57:18.132Z,6.93
2019-02-04T07:58:21.693Z,7.40
2019-02-04T07:59:25.289Z,7.57
2019-02-04T08:00:31.051Z,6.73
2019-02-04T08:01:34.803Z,6.10
2019-02-04T08:02:38.574Z,6.70
2019-02-04T08:03:42.130Z,7.57
2019-02-04T08:04:45.873Z,6.83
2019-02-04T08:05:49.812Z,7.10
2019-02-04T08:06:53.482Z,7.20
2019-02-04T08:07:57.437Z,7.70
2019-02-04T08:09:01.012Z,7.30
2019-02-04T08:10:06.918Z,6.65
2019-02-04T08:11:10.574Z,6.93
2019-02-04T08:12:14.047Z,6.70
2019-02-04T08:13:17.701Z,5.93
2019-02-04T08:14:21.352Z,5.30
2019-02-04T08:15:27.745Z,6.00
2019-02-04T08:16:31.327Z,5.30
2019-02-04T08:17:34.841Z,4.90
2019-02-04T08:18:38.504Z,4.70
2019-02-04T08:19:47.377Z,5.40
2019-02-04T08:20:47.480Z,4.70
2019-02-04T08:21:50.974Z,4.40
2019-02-04T08:22:54.586Z,4.50
2019-02-04T08:23:58.122Z,4.10
2019-02-04T08:25:01.720Z,3.83
2019-02-04T08:26:05.448Z,4.50
2019-02-04T08:27:08.961Z,3.90
2019-02-04T08:28:12.660Z,4.10
2019-02-04T08:29:16.309Z,3.73
2019-02-04T08:30:22.763Z,3.17
2019-02-04T08:31:26.351Z,3.83
2019-02-04T08:32:29.853Z,4.17
2019-02-04T08:33:33.406Z,3.23
2019-02-04T08:34:37.070Z,3.30
2019-02-04T08:35:41.070Z,3.80
2019-02-04T08:36:46.443Z,3.20
2019-02-04T08:37:50.070Z,3.60
2019-02-04T08:38:53.564Z,3.70
2019-02-04T08:39:57.151Z,3.70
2019-02-04T08:41:02.346Z,3.90
2019-02-04T08:42:06.131Z,4.50
2019-02-04T08:43:09.801Z,4.57
2019-02-04T08:44:13.357Z,5.07
2019-02-04T08:45:17.079Z,4.17
2019-02-04T08:46:20.593Z,4.07
2019-02-04T08:47:24.218Z,3.80
2019-02-04T08:48:28.172Z,3.40
2019-02-04T08:49:31.933Z,4.27
2019-02-04T08:50:35.507Z,4.60
2019-02-04T08:51:39.095Z,3.90
2019-02-04T08:52:42.751Z,3.77
2019-02-04T08:53:46.323Z,3.20
2019-02-04T08:54:49.836Z,3.47
2019-02-04T08:55:53.398Z,4.00
2019-02-04T08:56:56.996Z,3.60
2019-02-04T08:58:00.695Z,3.57
2019-02-04T08:59:04.408Z,4.13
2019-02-04T09:00:10.964Z,4.07
2019-02-04T09:01:14.459Z,4.00
2019-02-04T09:02:18.029Z,3.37
2019-02-04T09:03:22.016Z,3.93
2019-02-04T09:04:25.476Z,3.73
2019-02-04T09:05:29.145Z,3.50
2019-02-04T09:06:32.795Z,3.40
2019-02-04T09:07:36.423Z,4.03
2019-02-04T09:08:39.988Z,3.70
2019-02-04T09:09:44.736Z,3.67
2019-02-04T09:10:48.818Z,3.30
2019-02-04T09:11:52.435Z,3.80
2019-02-04T09:12:56.413Z,4.70
2019-02-04T09:14:00.351Z,4.00
2019-02-04T09:15:05.632Z,5.00
2019-02-04T09:16:09.548Z,6.30
2019-02-04T09:17:13.769Z,6.30
2019-02-04T09:18:17.545Z,6.33
2019-02-04T09:19:21.550Z,6.60
2019-02-04T09:20:25.755Z,6.90
2019-02-04T09:21:29.718Z,6.97
2019-02-04T09:22:33.689Z,7.27
2019-02-04T09:23:37.297Z,7.97
2019-02-04T09:24:41.074Z,6.60
2019-02-04T09:25:45.206Z,6.70
2019-02-04T09:26:48.883Z,6.50
2019-02-04T09:27:52.700Z,7.27
2019-02-04T09:28:56.421Z,6.30
2019-02-04T09:30:00.650Z,7.30
2019-02-04T09:31:05.528Z,6.40
2019-02-04T09:32:09.454Z,6.00
2019-02-04T09:33:13.094Z,6.40
2019-02-04T09:34:16.617Z,6.30
2019-02-04T09:35:21.548Z,6.30
2019-02-04T09:36:25.294Z,6.17
2019-02-04T09:37:28.871Z,6.57
2019-02-04T09:38:32.446Z,6.03
2019-02-04T09:39:35.956Z,5.90
2019-02-04T09:40:42.037Z,6.20
2019-02-04T09:41:45.516Z,5.90
2019-02-04T09:42:49.119Z,6.90
2019-02-04T09:43:52.675Z,7.10
2019-02-04T09:44:56.329Z,7.30
2019-02-04T09:46:00.188Z,6.77
2019-02-04T09:47:03.748Z,6.77
2019-02-04T09:48:10.422Z,6.97
2019-02-04T09:49:14.006Z,6.20
2019-02-04T09:50:21.946Z,7.13
2019-02-04T09:51:25.479Z,6.43
2019-02-04T09:52:29.041Z,7.40
2019-02-04T09:53:32.689Z,7.10
2019-02-04T09:54:36.279Z,6.10
2019-02-04T09:55:40.220Z,8.20
2019-02-04T09:56:43.837Z,6.50
2019-02-04T09:57:47.497Z,6.23
2019-02-04T09:58:51.163Z,6.97
2019-02-04T09:59:54.806Z,6.50
2019-02-04T10:00:58.885Z,6.50
2019-02-04T10:02:03.010Z,6.43
2019-02-04T10:03:07.463Z,5.63
2019-02-04T10:04:11.100Z,6.40
2019-02-04T10:05:16.330Z,5.77
2019-02-04T10:06:19.823Z,6.67
2019-02-04T10:07:23.473Z,6.00
2019-02-04T10:08:27.079Z,6.30
2019-02-04T10:09:30.631Z,6.83
2019-02-04T10:10:34.287Z,7.07
2019-02-04T10:11:37.892Z,6.03
2019-02-04T10:12:41.534Z,5.90
2019-02-04T10:13:45.112Z,5.90
2019-02-04T10:14:48.619Z,5.80
2019-02-04T10:15:52.246Z,6.50
2019-02-04T10:16:56.251Z,6.10
2019-02-04T10:17:59.900Z,6.63
2019-02-04T10:19:03.528Z,6.27
2019-02-04T10:20:10.153Z,7.27
2019-02-04T10:21:13.763Z,5.47
2019-02-04T10:22:17.499Z,6.07
2019-02-04T10:23:21.192Z,5.40
2019-02-04T10:24:24.633Z,5.50
2019-02-04T10:25:30.613Z,6.20
2019-02-04T10:26:34.298Z,5.80
2019-02-04T10:27:37.945Z,6.07
2019-02-04T10:28:41.523Z,5.30
2019-02-04T10:29:45.571Z,5.47
2019-02-04T10:30:49.263Z,5.63
2019-02-04T10:31:52.914Z,5.47
2019-02-04T10:32:56.960Z,5.80
2019-02-04T10:34:00.460Z,5.30
2019-02-04T10:35:16.400Z,5.30
2019-02-04T10:36:10.184Z,6.37
2019-02-04T10:37:13.651Z,5.37
2019-02-04T10:38:17.152Z,6.37
2019-02-04T10:39:20.990Z,5.90
2019-02-04T10:40:29.145Z,6.10
2019-02-04T10:41:32.804Z,6.10
2019-02-04T10:42:36.471Z,6.40
2019-02-04T10:43:40.039Z,5.47
2019-02-04T10:44:43.544Z,6.03
2019-02-04T10:45:47.119Z,6.00
2019-02-04T10:46:50.615Z,5.37
2019-02-04T10:47:54.840Z,6.83
2019-02-04T10:48:58.724Z,6.17
2019-02-04T10:50:02.352Z,6.10
2019-02-04T10:51:06.053Z,6.30
2019-02-04T10:52:09.576Z,5.97
2019-02-04T10:53:13.319Z,6.00
2019-02-04T10:54:17.067Z,6.00
2019-02-04T10:55:20.726Z,6.20
2019-02-04T10:56:24.264Z,6.40
2019-02-04T10:57:27.819Z,7.80
2019-02-04T10:58:33.117Z,6.97
2019-02-04T10:59:36.703Z,7.43
2019-02-04T11:00:40.953Z,6.93
2019-02-04T11:01:44.656Z,7.13
2019-02-04T11:02:48.600Z,7.30
2019-02-04T11:03:52.474Z,6.40
2019-02-04T11:04:56.099Z,7.23
2019-02-04T11:05:59.636Z,6.80
2019-02-04T11:07:03.231Z,9.30
2019-02-04T11:08:08.366Z,7.07
2019-02-04T11:09:12.174Z,6.70
2019-02-04T11:10:18.705Z,7.33
2019-02-04T11:11:22.285Z,6.70
2019-02-04T11:12:26.131Z,7.20
2019-02-04T11:13:29.835Z,7.07
2019-02-04T11:14:33.442Z,7.70
2019-02-04T11:15:37.304Z,6.80
2019-02-04T11:16:40.830Z,7.37
2019-02-04T11:17:44.742Z,8.33
2019-02-04T11:18:48.531Z,7.50
2019-02-04T11:19:52.160Z,8.00
2019-02-04T11:20:58.135Z,7.20
2019-02-04T11:22:01.142Z,7.63
2019-02-04T11:23:06.997Z,7.50
2019-02-04T11:24:10.687Z,7.03
2019-02-04T11:25:14.448Z,6.13
2019-02-04T11:26:17.914Z,6.97
2019-02-04T11:27:21.511Z,7.80
2019-02-04T11:28:25.512Z,7.20
2019-02-04T11:29:30.347Z,7.03
2019-02-04T11:30:36.801Z,6.97
2019-02-04T11:31:40.389Z,6.83
2019-02-04T11:32:44.045Z,7.97
2019-02-04T11:33:48.046Z,7.80
2019-02-04T11:34:51.944Z,6.70
2019-02-04T11:35:55.657Z,7.20
2019-02-04T11:36:59.309Z,6.77
2019-02-04T11:38:02.919Z,7.37
2019-02-04T11:39:08.286Z,7.20
2019-02-04T11:40:20.894Z,7.10
2019-02-04T11:41:24.509Z,7.33
2019-02-04T11:42:28.085Z,6.73
2019-02-04T11:43:31.765Z,7.63
2019-02-04T11:44:35.427Z,8.07
2019-02-04T11:45:39.465Z,8.20
2019-02-04T11:46:43.581Z,7.67
2019-02-04T11:47:47.287Z,6.17
2019-02-04T11:48:50.995Z,6.57
2019-02-04T11:49:54.586Z,6.70
2019-02-04T11:51:08.913Z,7.20
2019-02-04T11:52:03.946Z,6.67
2019-02-04T11:53:07.787Z,6.17
2019-02-04T11:54:11.401Z,7.37
2019-02-04T11:55:16.725Z,6.90
2019-02-04T11:56:20.340Z,6.20
2019-02-04T11:57:23.840Z,6.80
2019-02-04T11:58:27.452Z,6.97
2019-02-04T11:59:30.963Z,6.70
2019-02-04T12:00:35.188Z,6.50
2019-02-04T12:01:38.827Z,6.20
2019-02-04T12:02:42.564Z,6.23
2019-02-04T12:03:46.154Z,6.27
2019-02-04T12:04:49.742Z,6.27
2019-02-04T12:05:53.671Z,6.13
2019-02-04T12:06:57.176Z,6.23
2019-02-04T12:08:00.818Z,6.13
2019-02-04T12:09:07.171Z,6.70
2019-02-04T12:10:13.727Z,6.23
2019-02-04T12:11:17.360Z,6.23
2019-02-04T12:12:20.948Z,5.80
2019-02-04T12:13:24.533Z,5.80
2019-02-04T12:14:28.029Z,5.53
2019-02-04T12:15:31.747Z,6.23
2019-02-04T12:16:35.306Z,5.73
2019-02-04T12:17:39.045Z,5.27
2019-02-04T12:18:42.701Z,6.27
2019-02-04T12:19:46.343Z,5.90
2019-02-04T12:20:50.159Z,5.00
2019-02-04T12:21:54.077Z,5.43
2019-02-04T12:22:57.711Z,5.67
2019-02-04T12:24:01.215Z,5.83
2019-02-04T12:25:07.883Z,5.73
2019-02-04T12:26:11.529Z,6.17
2019-02-04T12:27:15.030Z,5.33
2019-02-04T12:28:18.634Z,5.73
2019-02-04T12:29:22.267Z,6.03
2019-02-04T12:30:40.699Z,6.97
2019-02-04T12:31:44.340Z,7.33
2019-02-04T12:32:48.005Z,7.73
2019-02-04T12:33:51.563Z,7.77
2019-02-04T12:34:55.140Z,7.20
2019-02-04T12:36:01.905Z,7.87
2019-02-04T12:37:04.100Z,8.27
2019-02-04T12:38:07.862Z,6.70
2019-02-04T12:39:13.340Z,6.87
2019-02-04T12:40:17.852Z,6.67
2019-02-04T12:41:21.462Z,5.43
2019-02-04T12:42:24.991Z,6.03
2019-02-04T12:43:28.507Z,6.10
2019-02-04T12:44:32.072Z,6.37
2019-02-04T12:45:37.521Z,5.47
2019-02-04T12:46:41.127Z,5.80
2019-02-04T12:47:44.984Z,5.00
2019-02-04T12:48:48.574Z,5.30
2019-02-04T12:49:52.145Z,5.87
2019-02-04T12:50:55.776Z,5.50
2019-02-04T12:51:59.436Z,5.40
2019-02-04T12:53:02.934Z,5.37
2019-02-04T12:54:06.846Z,5.53
2019-02-04T12:55:22.430Z,5.00
2019-02-04T12:56:25.915Z,5.27
2019-02-04T12:57:29.799Z,4.70
2019-02-04T12:58:33.321Z,5.30
2019-02-04T12:59:36.811Z,5.00
2019-02-04T13:00:40.474Z,5.03
2019-02-04T13:01:44.020Z,5.50
2019-02-04T13:02:47.678Z,6.07
2019-02-04T13:03:51.251Z,7.47
2019-02-04T13:04:54.803Z,8.30
2019-02-04T13:05:58.560Z,9.07
2019-02-04T13:07:02.157Z,7.73
2019-02-04T13:08:07.452Z,8.30
2019-02-04T13:09:11.111Z,7.40
2019-02-04T13:10:16.936Z,6.63
2019-02-04T13:11:20.495Z,7.17
2019-02-04T13:12:24.301Z,6.27
2019-02-04T13:13:27.862Z,6.53
2019-02-04T13:14:31.385Z,6.23
2019-02-04T13:15:35.031Z,5.17
2019-02-04T13:16:38.610Z,5.60
2019-02-04T13:17:42.265Z,5.73
2019-02-04T13:18:45.786Z,5.53
2019-02-04T13:19:49.286Z,7.00
2019-02-04T13:20:52.960Z,5.57
2019-02-04T13:21:56.521Z,6.13
2019-02-04T13:23:00.059Z,5.50
2019-02-04T13:24:04.047Z,5.27
2019-02-04T13:25:10.801Z,6.80
2019-02-04T13:26:14.301Z,5.83
2019-02-04T13:27:18.266Z,5.40
2019-02-04T13:28:22.318Z,6.70
2019-02-04T13:29:25.946Z,5.10
2019-02-04T13:30:30.666Z,5.40
2019-02-04T13:31:34.196Z,5.60
2019-02-04T13:32:37.714Z,5.13
2019-02-04T13:33:41.185Z,6.00
2019-02-04T13:34:44.849Z,5.40
2019-02-04T13:35:48.497Z,5.13
2019-02-04T13:36:52.065Z,5.50
2019-02-04T13:37:55.682Z,5.90
2019-02-04T13:38:59.232Z,5.57
2019-02-04T13:40:03.002Z,4.70
2019-02-04T13:41:09.567Z,4.73
2019-02-04T13:42:12.311Z,4.87
2019-02-04T13:43:16.042Z,5.30
2019-02-04T13:44:19.525Z,5.60
2019-02-04T13:45:23.450Z,6.23
2019-02-04T13:46:26.962Z,5.07
2019-02-04T13:47:30.717Z,4.60
2019-02-04T13:48:34.371Z,5.60
2019-02-04T13:49:37.885Z,5.50
2019-02-04T13:50:41.508Z,4.80
2019-02-04T13:51:56.858Z,5.10
2019-02-04T13:52:50.918Z,5.53
2019-02-04T13:53:57.099Z,5.60
2019-02-04T13:55:00.179Z,5.47
2019-02-04T13:56:03.932Z,6.47
2019-02-04T13:57:07.894Z,6.37
2019-02-04T13:58:12.750Z,7.10
2019-02-04T13:59:16.249Z,6.83
2019-02-04T14:00:20.049Z,6.20
2019-02-04T14:01:23.796Z,8.30
2019-02-04T14:02:27.315Z,8.53
2019-02-04T14:03:30.938Z,6.70
2019-02-04T14:04:34.516Z,6.87
2019-02-04T14:05:38.140Z,7.20
2019-02-04T14:06:41.724Z,7.27
2019-02-04T14:07:45.373Z,7.60
2019-02-04T14:08:48.958Z,7.13
2019-02-04T14:09:52.504Z,8.10
2019-02-04T14:10:56.144Z,7.13